Terminal Aerodrome Forecast
Issued by NWS

Home | Current Version | Previous Version | Text Only | Print | Product List | Glossary On
Versions: 1 2 3 4 5 6 7 8 9 10 11 12 13 14 15 16 17 18
000
FTUS43 KEAX 281125
TAFSTJ
TAF
KSTJ 281125Z 2812/2912 19015G25KT P6SM BKN200
      TEMPO 2812/2815 -TSRA BKN050CB
     FM281500 20017G29KT P6SM BKN150
     FM290000 20013G23KT P6SM BKN150
     FM290900 19011KT P6SM BKN150=

USA.gov is the U.S. government's official web portal to all federal, state and local government web resources and services.